createdAt,value
2019-04-28T00:03:46.171Z,59.07
2019-04-28T00:06:24.328Z,58.98
2019-04-28T00:08:52.958Z,58.65
2019-04-28T00:11:27.582Z,58.59
2019-04-28T00:13:56.483Z,59.22
2019-04-28T00:16:25.250Z,58.94
2019-04-28T00:18:55.471Z,59.64
2019-04-28T00:21:28.447Z,59.45
2019-04-28T00:24:11.468Z,59.27
2019-04-28T00:26:45.366Z,59.20
2019-04-28T00:29:23.302Z,59.14
2019-04-28T00:31:52.214Z,60.09
2019-04-28T00:34:31.296Z,59.61
2019-04-28T00:37:01.477Z,59.81
2019-04-28T00:39:35.484Z,59.56
2019-04-28T00:42:07.667Z,59.66
2019-04-28T00:44:36.382Z,59.52
2019-04-28T00:47:10.887Z,59.41
2019-04-28T00:49:51.917Z,60.25
2019-04-28T00:52:22.183Z,60.46
2019-04-28T00:54:52.548Z,59.91
2019-04-28T00:57:21.852Z,59.86
2019-04-28T00:59:58.491Z,60.18
2019-04-28T01:02:41.117Z,59.88
2019-04-28T01:05:25.381Z,60.04
2019-04-28T01:07:54.164Z,60.19
2019-04-28T01:10:23.882Z,60.27
2019-04-28T01:12:52.542Z,59.95
2019-04-28T01:15:29.821Z,60.05
2019-04-28T01:18:04.502Z,60.47
2019-04-28T01:20:32.974Z,60.10
2019-04-28T01:23:10.323Z,59.99
2019-04-28T01:25:43.424Z,60.41
2019-04-28T01:28:14.844Z,60.65
2019-04-28T01:30:49.935Z,60.94
2019-04-28T01:33:23.217Z,61.38
2019-04-28T01:35:51.672Z,61.73
2019-04-28T01:38:20.548Z,61.18
2019-04-28T01:40:50.030Z,60.95
2019-04-28T01:43:19.618Z,61.10
2019-04-28T01:45:50.091Z,60.73
2019-04-28T01:48:19.863Z,60.72
2019-04-28T01:51:19.097Z,61.14
2019-04-28T01:56:42.412Z,60.99
2019-04-28T01:59:11.129Z,60.93
2019-04-28T02:01:40.050Z,61.39
2019-04-28T02:04:11.868Z,61.27
2019-04-28T02:06:42.121Z,61.89
2019-04-28T02:09:11.067Z,61.74
2019-04-28T02:11:41.238Z,61.54
2019-04-28T02:14:10.018Z,61.57
2019-04-28T02:16:40.421Z,61.78
2019-04-28T02:19:10.619Z,61.97
2019-04-28T02:21:41.074Z,61.69
2019-04-28T02:24:37.487Z,61.83
2019-04-28T02:27:06.426Z,61.90
2019-04-28T02:29:35.271Z,62.16
2019-04-28T02:32:04.186Z,62.54
2019-04-28T02:34:32.872Z,62.36
2019-04-28T02:37:02.032Z,62.58
2019-04-28T02:39:31.522Z,63.17
2019-04-28T02:42:01.330Z,62.74
2019-04-28T02:44:34.078Z,63.03
2019-04-28T02:47:01.185Z,63.42
2019-04-28T02:49:34.074Z,63.29
2019-04-28T02:52:04.172Z,63.65
2019-04-28T02:54:32.822Z,64.27
2019-04-28T02:57:23.420Z,64.44
2019-04-28T02:59:51.982Z,64.59
2019-04-28T03:02:21.020Z,63.98
2019-04-28T03:04:50.582Z,63.84
2019-04-28T03:07:25.867Z,63.45
2019-04-28T03:09:54.536Z,62.77
2019-04-28T03:12:23.058Z,62.83
2019-04-28T03:14:51.570Z,62.43
2019-04-28T03:17:23.243Z,61.98
2019-04-28T03:19:51.968Z,61.74
2019-04-28T03:22:20.990Z,62.03
2019-04-28T03:24:51.555Z,61.51
2019-04-28T03:30:03.603Z,61.97
2019-04-28T03:32:45.296Z,61.86
2019-04-28T03:35:14.763Z,61.55
2019-04-28T03:37:43.441Z,62.51
2019-04-28T03:40:12.079Z,62.39
2019-04-28T03:42:41.194Z,61.88
2019-04-28T03:45:11.905Z,61.59
2019-04-28T03:47:40.935Z,62.60
2019-04-28T03:50:10.626Z,62.22
2019-04-28T03:52:41.440Z,62.26
2019-04-28T03:55:11.713Z,62.10
2019-04-28T03:57:41.217Z,62.65
2019-04-28T04:00:11.175Z,62.31
2019-04-28T04:02:56.160Z,63.00
2019-04-28T04:05:26.329Z,62.19
2019-04-28T04:07:54.801Z,61.85
2019-04-28T04:10:30.664Z,62.68
2019-04-28T04:13:01.070Z,62.05
2019-04-28T04:16:01.641Z,61.86
2019-04-28T04:31:34.685Z,62.04
2019-04-28T04:34:11.111Z,62.23
2019-04-28T04:36:41.625Z,63.06
2019-04-28T04:39:10.830Z,62.24
2019-04-28T04:41:40.882Z,62.12
2019-04-28T04:44:11.182Z,62.52
2019-04-28T04:46:41.417Z,62.83
2019-04-28T04:49:10.852Z,62.73
2019-04-28T04:51:43.361Z,63.04
2019-04-28T04:54:10.842Z,63.04
2019-04-28T04:56:40.175Z,63.24
2019-04-28T04:59:10.814Z,63.93
2019-04-28T05:02:01.723Z,64.32
2019-04-28T05:04:29.902Z,64.08
2019-04-28T05:06:59.705Z,64.09
2019-04-28T05:09:29.552Z,63.64
2019-04-28T05:12:02.197Z,64.51
2019-04-28T05:14:30.608Z,64.14
2019-04-28T05:17:00.826Z,63.69
2019-04-28T05:19:29.859Z,64.40
2019-04-28T05:22:00.063Z,64.13
2019-04-28T05:24:53.004Z,63.90
2019-04-28T05:27:22.154Z,63.61
2019-04-28T05:29:51.199Z,63.66
2019-04-28T05:32:20.537Z,63.36
2019-04-28T05:34:52.640Z,63.98
2019-04-28T05:37:21.190Z,63.61
2019-04-28T05:39:52.440Z,63.84
2019-04-28T05:42:20.204Z,63.38
2019-04-28T05:44:49.655Z,63.48
2019-04-28T05:47:20.341Z,63.53
2019-04-28T05:50:13.108Z,63.60
2019-04-28T05:53:04.215Z,63.55
2019-04-28T05:55:36.095Z,63.30
2019-04-28T05:58:12.369Z,62.57
2019-04-28T06:00:45.255Z,62.56
2019-04-28T06:03:33.363Z,62.59
2019-04-28T06:06:24.951Z,62.53
2019-04-28T06:08:59.840Z,62.56
2019-04-28T06:11:46.659Z,62.35
2019-04-28T06:14:32.063Z,62.53
2019-04-28T06:17:01.528Z,61.83
2019-04-28T06:19:30.877Z,60.95
2019-04-28T06:24:52.147Z,61.50
2019-04-28T06:27:23.519Z,60.44
2019-04-28T06:29:52.012Z,60.73
2019-04-28T06:35:34.271Z,60.69
2019-04-28T06:38:02.932Z,60.04
2019-04-28T06:41:23.151Z,60.30
2019-04-28T06:43:51.639Z,60.01
2019-04-28T06:46:20.395Z,58.85
2019-04-28T06:48:49.003Z,59.41
2019-04-28T06:51:17.654Z,58.87
2019-04-28T06:53:46.167Z,58.50
2019-04-28T06:56:14.879Z,58.54
2019-04-28T06:58:43.380Z,58.24
2019-04-28T07:01:22.875Z,58.29
2019-04-28T07:04:01.203Z,58.30
2019-04-28T07:06:40.368Z,57.80
2019-04-28T07:09:18.996Z,56.76
2019-04-28T07:12:07.793Z,56.72
2019-04-28T07:14:52.988Z,57.52
2019-04-28T07:23:39.554Z,57.99
2019-04-28T07:34:03.023Z,58.34
2019-04-28T07:36:34.969Z,58.45
2019-04-28T07:43:10.635Z,59.26
2019-04-28T07:45:47.204Z,57.58
2019-04-28T07:48:44.271Z,58.38
2019-04-28T07:52:01.283Z,58.45
2019-04-28T07:54:30.363Z,58.16
2019-04-28T08:01:45.381Z,57.78
2019-04-28T08:03:48.797Z,56.60
2019-04-28T08:06:48.124Z,57.32
2019-04-28T08:09:41.293Z,55.99
2019-04-28T08:21:38.467Z,57.18
2019-04-28T08:26:48.510Z,57.81
2019-04-28T08:29:17.399Z,57.15
2019-04-28T08:31:56.513Z,57.45
2019-04-28T08:37:47.679Z,58.79
2019-04-28T08:40:16.568Z,57.71
2019-04-28T08:45:43.809Z,59.37
2019-04-28T08:48:15.767Z,59.70
2019-04-28T08:50:44.603Z,59.37
2019-04-28T08:59:47.079Z,58.53
2019-04-28T09:03:19.638Z,58.94
2019-04-28T09:09:28.748Z,59.44
2019-04-28T09:12:02.376Z,59.47
2019-04-28T09:20:08.363Z,57.54
2019-04-28T09:22:36.778Z,57.06
2019-04-28T09:25:07.135Z,56.79
2019-04-28T09:27:35.601Z,56.00
2019-04-28T09:30:05.761Z,55.62
2019-04-28T09:32:34.236Z,56.10
2019-04-28T09:35:02.749Z,55.67
2019-04-28T09:37:31.183Z,55.69
2019-04-28T09:40:01.277Z,56.36
2019-04-28T09:42:31.320Z,55.92
2019-04-28T09:45:15.895Z,56.46
2019-04-28T09:47:44.319Z,56.64
2019-04-28T09:50:12.780Z,54.68
2019-04-28T09:52:41.257Z,53.64
2019-04-28T09:55:09.821Z,53.62
2019-04-28T09:57:38.282Z,53.64
2019-04-28T10:00:08.293Z,53.39
2019-04-28T10:02:36.799Z,50.96
2019-04-28T10:05:08.844Z,50.99
2019-04-28T10:07:37.358Z,51.35
2019-04-28T10:10:08.102Z,44.86
2019-04-28T10:12:36.592Z,43.49
2019-04-28T10:15:09.036Z,42.42
2019-04-28T10:17:37.810Z,41.99
2019-04-28T10:20:07.117Z,41.29
2019-04-28T10:22:36.216Z,40.56
2019-04-28T10:25:08.109Z,41.98
2019-04-28T10:27:36.512Z,39.88
2019-04-28T10:30:09.532Z,38.70
2019-04-28T10:32:37.966Z,41.96
2019-04-28T10:35:08.407Z,40.93
2019-04-28T10:37:37.092Z,41.36
2019-04-28T10:40:14.855Z,45.05
2019-04-28T10:42:43.288Z,47.13
2019-04-28T10:45:13.598Z,44.80
2019-04-28T10:47:42.073Z,46.67
2019-04-28T10:50:11.156Z,46.11
2019-04-28T10:52:39.550Z,41.63
2019-04-28T10:55:08.467Z,43.38
2019-04-28T10:57:36.932Z,42.46
2019-04-28T11:00:08.176Z,45.35
2019-04-28T11:02:36.593Z,47.44
2019-04-28T11:05:09.042Z,48.97
2019-04-28T11:07:37.675Z,49.48
2019-04-28T11:10:15.362Z,50.44
2019-04-28T11:12:43.829Z,52.10
2019-04-28T11:15:14.005Z,53.53
2019-04-28T11:17:42.435Z,56.04
2019-04-28T11:20:11.289Z,57.43
2019-04-28T11:22:39.708Z,55.52
2019-04-28T11:25:08.365Z,47.52
2019-04-28T11:27:37.196Z,44.53
2019-04-28T11:30:08.107Z,40.80
2019-04-28T11:32:37.923Z,38.07
2019-04-28T11:35:21.765Z,39.06
2019-04-28T11:37:48.247Z,38.78
2019-04-28T11:40:16.675Z,34.90
2019-04-28T11:42:45.081Z,30.96
2019-04-28T11:45:13.660Z,29.56
2019-04-28T11:47:42.059Z,34.88
2019-04-28T11:50:10.800Z,39.11
2019-04-28T11:52:39.250Z,41.59
2019-04-28T11:55:07.643Z,43.84
2019-04-28T11:57:37.716Z,44.90
2019-04-28T12:00:08.421Z,45.60
2019-04-28T12:02:36.870Z,45.76
2019-04-28T12:05:06.374Z,44.52
2019-04-28T12:07:34.775Z,45.02
2019-04-28T12:10:07.975Z,44.65
2019-04-28T12:12:41.210Z,44.56
2019-04-28T12:15:11.404Z,45.02
2019-04-28T12:17:41.486Z,46.15
2019-04-28T12:20:11.563Z,45.14
2019-04-28T12:22:39.983Z,46.30
2019-04-28T12:25:08.486Z,45.74
2019-04-28T12:27:36.906Z,46.51
2019-04-28T12:30:06.336Z,47.52
2019-04-28T12:32:34.740Z,46.97
2019-04-28T12:35:03.173Z,46.61
2019-04-28T12:37:31.579Z,47.41
2019-04-28T12:40:00.016Z,46.27
2019-04-28T12:42:28.437Z,46.70
2019-04-28T12:44:56.871Z,45.91
2019-04-28T12:47:25.279Z,47.00
2019-04-28T12:49:55.360Z,46.63
2019-04-28T12:52:23.872Z,46.56
2019-04-28T12:54:52.282Z,49.70
2019-04-28T12:57:21.002Z,49.35
2019-04-28T12:59:53.164Z,49.75
2019-04-28T13:02:23.014Z,49.83
2019-04-28T13:04:53.078Z,50.38
2019-04-28T13:07:21.495Z,51.41
2019-04-28T13:09:50.049Z,52.62
2019-04-28T13:12:18.478Z,55.13
2019-04-28T13:14:46.978Z,57.28
2019-04-28T13:17:15.396Z,57.51
2019-04-28T13:19:43.897Z,58.24
2019-04-28T13:22:12.336Z,60.17
2019-04-28T13:24:40.841Z,59.62
2019-04-28T13:27:10.333Z,58.80
2019-04-28T13:29:38.882Z,60.20
2019-04-28T13:32:07.286Z,59.11
2019-04-28T13:34:37.420Z,59.53
2019-04-28T13:37:05.925Z,57.60
2019-04-28T13:39:36.138Z,55.38
2019-04-28T13:42:05.411Z,55.05
2019-04-28T13:44:51.750Z,54.51
2019-04-28T13:47:20.908Z,56.23
2019-04-28T13:50:07.103Z,56.02
2019-04-28T13:52:35.623Z,56.58
2019-04-28T13:55:12.195Z,58.25
2019-04-28T13:57:42.344Z,59.29
2019-04-28T14:00:12.730Z,58.75
2019-04-28T14:02:42.763Z,58.92
2019-04-28T14:05:13.315Z,58.39
2019-04-28T14:07:41.768Z,58.35
2019-04-28T14:10:10.348Z,58.43
2019-04-28T14:12:38.793Z,57.92
2019-04-28T14:15:07.353Z,58.30
2019-04-28T14:17:35.931Z,57.01
2019-04-28T14:20:06.795Z,56.49
2019-04-28T14:22:35.280Z,56.32
2019-04-28T14:25:04.915Z,56.30
2019-04-28T14:27:33.462Z,54.76
2019-04-28T14:30:01.860Z,53.55
2019-04-28T14:32:30.290Z,53.39
2019-04-28T14:34:58.819Z,53.56
2019-04-28T14:37:27.198Z,54.04
2019-04-28T14:39:55.914Z,52.62
2019-04-28T14:42:24.321Z,53.97
2019-04-28T14:44:52.758Z,54.31
2019-04-28T14:47:21.193Z,53.81
2019-04-28T14:49:49.638Z,54.39
2019-04-28T14:52:18.049Z,53.51
2019-04-28T14:54:46.494Z,52.60
2019-04-28T14:57:15.029Z,53.14
2019-04-28T14:59:43.384Z,53.62
2019-04-28T15:02:13.554Z,52.64
2019-04-28T15:04:59.669Z,52.05
2019-04-28T15:07:45.628Z,51.70
2019-04-28T15:10:32.098Z,51.78
2019-04-28T15:13:00.568Z,51.76
2019-04-28T15:15:29.106Z,50.91
2019-04-28T15:17:57.570Z,50.80
2019-04-28T15:20:26.035Z,51.01
2019-04-28T15:22:54.417Z,51.94
2019-04-28T15:25:22.826Z,50.17
2019-04-28T15:27:51.236Z,49.56
2019-04-28T15:30:19.674Z,49.15
2019-04-28T15:32:48.266Z,49.75
2019-04-28T15:35:16.784Z,49.21
2019-04-28T15:37:45.250Z,47.62
2019-04-28T15:40:13.642Z,48.52
2019-04-28T15:42:42.082Z,49.11
2019-04-28T15:45:10.920Z,49.68
2019-04-28T15:47:39.357Z,50.63
2019-04-28T15:50:07.988Z,50.60
2019-04-28T15:52:36.422Z,50.35
2019-04-28T15:55:08.302Z,50.68
2019-04-28T15:57:36.888Z,50.53
2019-04-28T16:00:08.783Z,51.32
2019-04-28T16:02:37.256Z,50.96
2019-04-28T16:05:07.578Z,51.62
2019-04-28T16:07:36.034Z,52.22
2019-04-28T16:10:06.892Z,53.05
2019-04-28T16:12:35.372Z,53.15
2019-04-28T16:15:07.378Z,52.95
2019-04-28T16:17:35.451Z,53.34
2019-04-28T16:20:06.323Z,52.40
2019-04-28T16:22:34.784Z,52.65
2019-04-28T16:25:04.294Z,53.01
2019-04-28T16:27:32.710Z,53.03
2019-04-28T16:30:01.128Z,52.80
2019-04-28T16:32:29.558Z,53.15
2019-04-28T16:34:57.983Z,53.34
2019-04-28T16:37:38.230Z,53.15
2019-04-28T16:39:56.823Z,52.98
2019-04-28T16:42:27.123Z,53.75
2019-04-28T16:44:58.836Z,54.73
2019-04-28T16:47:27.230Z,54.10
2019-04-28T16:49:55.757Z,54.26
2019-04-28T16:52:24.206Z,54.89
2019-04-28T16:54:54.255Z,55.99
2019-04-28T16:57:27.232Z,55.88
2019-04-28T16:59:57.297Z,56.19
2019-04-28T17:02:30.598Z,56.47
2019-04-28T17:04:59.040Z,57.15
2019-04-28T17:07:27.540Z,58.08
2019-04-28T17:09:55.942Z,57.64
2019-04-28T17:12:24.384Z,58.27
2019-04-28T17:14:52.814Z,58.90
2019-04-28T17:17:21.221Z,58.85
2019-04-28T17:19:49.724Z,60.42
2019-04-28T17:22:19.488Z,59.62
2019-04-28T17:24:48.113Z,60.98
2019-04-28T17:27:16.759Z,60.04
2019-04-28T17:29:45.306Z,59.23
2019-04-28T17:32:13.787Z,60.76
2019-04-28T17:34:42.193Z,59.45
2019-04-28T17:37:11.392Z,60.65
2019-04-28T17:39:39.798Z,61.28
2019-04-28T17:42:09.129Z,60.09
2019-04-28T17:44:37.534Z,59.82
2019-04-28T17:47:05.962Z,60.22
2019-04-28T17:49:36.082Z,61.33
2019-04-28T17:52:05.712Z,61.42
2019-04-28T17:54:34.538Z,61.60
2019-04-28T17:57:03.809Z,62.20
2019-04-28T17:59:32.239Z,61.42
2019-04-28T18:02:18.266Z,61.29
2019-04-28T18:04:51.030Z,61.52
2019-04-28T18:07:21.096Z,61.46
2019-04-28T18:09:49.595Z,61.09
2019-04-28T18:12:18.081Z,62.15
2019-04-28T18:14:48.223Z,62.50
2019-04-28T18:17:18.412Z,62.65
2019-04-28T18:19:46.796Z,62.83
2019-04-28T18:22:15.314Z,63.91
2019-04-28T18:24:43.890Z,62.56
2019-04-28T18:27:12.282Z,62.39
2019-04-28T18:29:40.680Z,61.94
2019-04-28T18:32:25.738Z,61.35
2019-04-28T18:34:58.901Z,62.38
2019-04-28T18:37:38.490Z,63.01
2019-04-28T18:40:21.538Z,61.97
2019-04-28T18:42:51.636Z,62.80
2019-04-28T18:45:20.093Z,61.68
2019-04-28T18:47:48.492Z,62.45
2019-04-28T18:50:17.049Z,62.97
2019-04-28T18:52:45.473Z,63.62
2019-04-28T18:55:14.136Z,63.37
2019-04-28T18:57:42.591Z,63.28
2019-04-28T19:00:11.410Z,62.71
2019-04-28T19:02:41.539Z,63.30
2019-04-28T19:05:10.593Z,63.59
2019-04-28T19:07:43.257Z,63.25
2019-04-28T19:10:13.451Z,64.03
2019-04-28T19:12:43.516Z,63.45
2019-04-28T19:15:29.831Z,64.16
2019-04-28T19:18:02.641Z,63.84
2019-04-28T19:20:31.047Z,64.07
2019-04-28T19:22:59.506Z,64.17
2019-04-28T19:25:27.923Z,64.85
2019-04-28T19:27:56.342Z,65.04
2019-04-28T19:30:24.902Z,64.61
2019-04-28T19:32:53.306Z,64.97
2019-04-28T19:35:21.737Z,65.15
2019-04-28T19:37:50.174Z,65.06
2019-04-28T19:40:18.594Z,64.63
2019-04-28T19:42:47.013Z,64.70
2019-04-28T19:45:17.478Z,64.97
2019-04-28T19:47:45.968Z,64.74
2019-04-28T19:50:14.591Z,64.69
2019-04-28T19:52:43.085Z,64.85
2019-04-28T19:55:16.866Z,65.88
2019-04-28T19:57:46.954Z,65.72
2019-04-28T20:00:23.516Z,65.30
2019-04-28T20:02:52.000Z,65.27
2019-04-28T20:05:20.431Z,65.45
2019-04-28T20:07:48.864Z,65.82
2019-04-28T20:10:17.299Z,65.78
2019-04-28T20:12:45.786Z,65.87
2019-04-28T20:15:14.351Z,65.70
2019-04-28T20:17:42.772Z,65.58
2019-04-28T20:20:11.560Z,65.87
2019-04-28T20:22:41.517Z,65.79
2019-04-28T20:25:10.897Z,65.91
2019-04-28T20:27:39.302Z,65.91
2019-04-28T20:30:08.687Z,65.42
2019-04-28T20:32:44.928Z,65.24
2019-04-28T20:35:16.103Z,63.65
2019-04-28T20:37:49.401Z,64.10
2019-04-28T20:40:19.483Z,64.69
2019-04-28T20:42:58.308Z,64.21
2019-04-28T20:45:26.814Z,64.11
2019-04-28T20:47:55.210Z,64.61
2019-04-28T20:50:23.639Z,65.08
2019-04-28T20:52:52.100Z,65.31
2019-04-28T20:55:20.506Z,65.30
2019-04-28T20:57:48.989Z,65.09
2019-04-28T21:00:17.469Z,65.02
2019-04-28T21:02:45.923Z,64.60
2019-04-28T21:05:14.490Z,64.70
2019-04-28T21:07:42.921Z,64.69
2019-04-28T21:10:11.667Z,64.65
2019-04-28T21:12:40.088Z,65.32
2019-04-28T21:15:09.349Z,65.90
2019-04-28T21:17:37.985Z,64.99
2019-04-28T21:20:07.363Z,65.36
2019-04-28T21:22:35.748Z,65.96
2019-04-28T21:25:06.057Z,65.64
2019-04-28T21:27:34.490Z,65.67
2019-04-28T21:30:02.909Z,65.62
2019-04-28T21:32:31.330Z,65.29
2019-04-28T21:34:59.731Z,65.70
2019-04-28T21:37:28.154Z,65.89
2019-04-28T21:39:56.573Z,65.75
2019-04-28T21:42:26.642Z,65.37
2019-04-28T21:45:12.859Z,65.46
2019-04-28T21:47:41.750Z,65.10
2019-04-28T21:50:10.241Z,64.23
2019-04-28T21:52:38.657Z,65.12
2019-04-28T21:55:07.649Z,65.55
2019-04-28T21:57:36.133Z,64.61
2019-04-28T22:00:09.476Z,65.63
2019-04-28T22:02:37.911Z,65.41
2019-04-28T22:05:07.373Z,65.44
2019-04-28T22:07:35.780Z,65.71
2019-04-28T22:10:06.428Z,66.13
2019-04-28T22:12:34.850Z,65.46
2019-04-28T22:15:03.329Z,65.36
2019-04-28T22:17:31.745Z,65.13
2019-04-28T22:20:00.151Z,65.86
2019-04-28T22:22:28.753Z,65.99
2019-04-28T22:24:58.806Z,65.83
2019-04-28T22:27:28.954Z,66.01
2019-04-28T22:29:57.343Z,65.34
2019-04-28T22:32:25.733Z,66.33
2019-04-28T22:34:54.167Z,66.30
2019-04-28T22:37:22.577Z,65.05
2019-04-28T22:39:50.973Z,66.20
2019-04-28T22:42:19.411Z,65.90
2019-04-28T22:44:47.831Z,65.76
2019-04-28T22:47:16.221Z,66.43
2019-04-28T22:49:44.623Z,66.54
2019-04-28T22:52:13.059Z,66.54
2019-04-28T22:54:43.127Z,66.36
2019-04-28T22:57:15.881Z,66.39
2019-04-28T22:59:48.823Z,67.01
2019-04-28T23:02:18.864Z,66.56
2019-04-28T23:04:58.065Z,66.82
2019-04-28T23:07:26.467Z,66.33
2019-04-28T23:09:55.061Z,65.88
2019-04-28T23:12:23.465Z,66.57
2019-04-28T23:14:51.904Z,66.52
2019-04-28T23:17:20.583Z,65.88
2019-04-28T23:19:49.152Z,66.07
2019-04-28T23:22:30.884Z,65.95
2019-04-28T23:24:59.270Z,66.36
2019-04-28T23:27:27.662Z,65.80
2019-04-28T23:29:56.080Z,66.78
2019-04-28T23:32:24.485Z,66.58
2019-04-28T23:34:52.922Z,66.94
2019-04-28T23:37:21.300Z,67.25
2019-04-28T23:39:49.931Z,66.82
2019-04-28T23:42:20.030Z,67.32
2019-04-28T23:44:48.412Z,67.12
2019-04-28T23:47:16.896Z,67.39
2019-04-28T23:49:45.326Z,67.47
2019-04-28T23:52:21.391Z,67.21
2019-04-28T23:54:51.418Z,67.16
2019-04-28T23:57:19.843Z,67.19
2019-04-28T23:59:48.263Z,67.46
